Ship Status Report: callsign BAREU11

sailwx.info

Track history (hours):
 
Tides and Currents Weather Stations Pressure Air Temp Water Temp Dewpoint Dewpoint Depression Visibility Wind Speed Wind Dir Waves Ship Positions

Callsign BAREU11 (name unknown)

Last reported at 2016-Apr-30 06:00 UTC. Time now 2016-Apr-30 07:09 UTC.
Position S 30°48' W 072°18'.

Barometer 1011.7 mb

Date/timePositionNaut miles runAvg speedWind from/ knotsBaromVisibWave heightAir tempDewpointWater temp
2016-Apr-30 06:00S 30°48' W 072°18'1918.7 1011.7
2016-Apr-30 05:00S 30°30' W 072°24'1212.0 1012.3
2016-Apr-30 04:00S 30°18' W 072°24'1918.7 1012.4
2016-Apr-30 03:00S 30°00' W 072°30'1918.7 1012.5
2016-Apr-30 02:00S 29°42' W 072°36'2512.3 1013.4
2016-Apr-30 00:00S 29°18' W 072°42'1918.7 1013.8
2016-Apr-29 23:00S 29°00' W 072°48'1918.8 1014.0
2016-Apr-29 22:00S 28°42' W 072°54'1212.0 1013.9
2016-Apr-29 21:00S 28°30' W 072°54'3818.8 1014.3
2016-Apr-29 19:00S 27°54' W 073°06'1313.1 1015.5
2016-Apr-29 18:00S 27°42' W 073°12'1818.0 1016.3
2016-Apr-29 17:00S 27°24' W 073°12'3215.9 1017.3
2016-Apr-29 15:00S 26°54' W 073°24'1918.8 1018.4
2016-Apr-29 14:00S 26°36' W 073°30'1818.0 1018.1
2016-Apr-29 13:00S 26°18' W 073°30'1918.8 1017.6
2016-Apr-29 12:00S 26°00' W 073°36'1313.2 1017.4
2016-Apr-29 11:00S 25°48' W 073°42'3818.8 1017.3
2016-Apr-29 09:00S 25°12' W 073°54'3015.2 1017.4
2016-Apr-29 07:00S 24°42' W 074°00'1918.8 1017.6
2016-Apr-29 06:00S 24°24' W 074°06'1212.0 1018.0
2016-Apr-29 05:00S 24°12' W 074°06'3818.8 1018.4
2016-Apr-29 03:00S 23°36' W 074°18'1313.2 1018.4
2016-Apr-29 02:00S 23°24' W 074°24'3618.2 1018.7
2016-Apr-29 00:00S 22°48' W 074°30'1313.2 1017.5
2016-Apr-28 23:00S 22°36' W 074°36'3618.2 1017.2
2016-Apr-28 21:00S 22°00' W 074°42'1313.2 1016.4
2016-Apr-28 20:00S 21°48' W 074°48'1918.8 1016.1
2016-Apr-28 19:00S 21°30' W 074°54'1918.8 1016.1
2016-Apr-28 18:00S 21°12' W 075°00'1818.0 1016.2
2016-Apr-28 17:00S 20°54' W 075°00'1313.2 1016.6
2016-Apr-28 16:00S 20°42' W 075°06'1918.9 1017.3
2016-Apr-28 15:00S 20°24' W 075°12'1918.9 1017.5
2016-Apr-28 14:00S 20°06' W 075°18'1818.0 1016.9
2016-Apr-28 13:00S 19°48' W 075°18'1918.9 1016.1
2016-Apr-28 12:00S 19°30' W 075°24'1918.9 1015.7
2016-Apr-28 11:00S 19°12' W 075°30'1918.9 1014.8
2016-Apr-28 10:00S 18°54' W 075°36'1818.0 1014.1
2016-Apr-28 09:00S 18°36' W 075°36'1918.9 1014.0
2016-Apr-28 08:00S 18°18' W 075°42'3216.0 1013.7
2016-Apr-28 06:00S 17°48' W 075°54'1818.0 1013.9
2016-Apr-28 05:00S 17°30' W 075°54'1918.9 1014.1
2016-Apr-28 04:00S 17°12' W 076°00'1918.9 1013.9
2016-Apr-28 03:00S 16°54' W 076°06'1818.0 1014.1
2016-Apr-28 02:00S 16°36' W 076°06'1313.3 1013.8
2016-Apr-28 01:00S 16°24' W 076°12'1918.9 1013.1
2016-Apr-28 00:00S 16°06' W 076°18'1918.9 1012.2
2016-Apr-27 23:00S 15°48' W 076°24'3115.3 1011.2
2016-Apr-27 21:00S 15°18' W 076°30'1918.9 1010.0
2016-Apr-27 20:00S 15°00' W 076°36'1918.9 1010.0
2016-Apr-27 19:00S 14°42' W 076°42'1818.0 1010.5
2016-Apr-27 18:00S 14°24' W 076°42'1313.3 1011.2
2016-Apr-27 17:00S 14°12' W 076°48'1918.9 1012.1
2016-Apr-27 16:00S 13°54' W 076°54'1818.0 1012.9
2016-Apr-27 15:00S 13°36' W 076°54'1313.3 1013.1
2016-Apr-27 14:00S 13°24' W 077°00'1918.9 1013.0
2016-Apr-27 13:00S 13°06' W 077°06'1818.0 1012.8
2016-Apr-27 12:00S 12°48' W 077°06'1313.4 1012.4
2016-Apr-27 11:00S 12°36' W 077°12'1918.9 1012.2
2016-Apr-27 10:00S 12°18' W 077°18'1818.0 1011.8
2016-Apr-27 09:00S 12°00' W 077°18'6 0.4 1011.9
2016-Apr-26 19:00S 12°00' W 077°12'2110.7 1010.5
2016-Apr-26 17:00S 11°48' W 077°30'1313.2 1011.6
2016-Apr-26 16:00S 11°42' W 077°42'1716.8 1011.9
2016-Apr-26 15:00S 11°30' W 077°54'8 8.4 1012.3
2016-Apr-26 14:00S 11°24' W 078°00'1313.4 1011.9
2016-Apr-26 13:00S 11°12' W 078°06'1716.8 1011.6
2016-Apr-26 12:00S 11°00' W 078°18'2713.4 1011.1
2016-Apr-26 10:00S 10°36' W 078°30'8 8.4 1010.3
2016-Apr-26 09:00S 10°30' W 078°36'1716.8 1010.3
2016-Apr-26 08:00S 10°18' W 078°48'1313.4 1010.4
2016-Apr-26 07:00S 10°06' W 078°54'1313.4 1010.6
2016-Apr-26 06:00S 09°54' W 079°00'1313.4 1010.9
2016-Apr-26 05:00S 09°42' W 079°06'8 8.4 1011.2
2016-Apr-26 04:00S 09°36' W 079°12'1716.9 1011.3
2016-Apr-26 03:00S 09°24' W 079°24'2713.4 1011.4
2016-Apr-26 01:00S 09°00' W 079°36'1313.4 1011.0
2016-Apr-26 00:00S 08°48' W 079°42'1313.4 1010.5
2016-Apr-25 23:00S 08°36' W 079°48'1313.3 1010.1
2016-Apr-25 22:00S 08°30' W 080°00'1313.4 1009.7
2016-Apr-25 21:00S 08°18' W 080°06'1313.4 1009.2
2016-Apr-25 20:00S 08°06' W 080°12'1313.4 1009.3
2016-Apr-25 19:00S 07°54' W 080°18'1313.4 1010.0
2016-Apr-25 18:00S 07°42' W 080°24'8 8.4 1010.8
2016-Apr-25 17:00S 07°36' W 080°30'1716.9 1011.6
2016-Apr-25 16:00S 07°24' W 080°42'1313.4 1012.0
2016-Apr-25 15:00S 07°12' W 080°48'1313.4 1012.5
2016-Apr-25 14:00S 07°00' W 080°54'1716.9 1012.9
2016-Apr-25 13:00S 06°48' W 081°06'1313.4 1012.3
2016-Apr-25 12:00S 06°36' W 081°12'1313.4 1012.2
2016-Apr-25 11:00S 06°24' W 081°18'1313.4 1011.4
2016-Apr-25 10:00S 06°12' W 081°24'1313.4 1010.9
2016-Apr-25 09:00S 06°00' W 081°30'2512.4 1010.7
2016-Apr-25 07:00S 05°36' W 081°36'1212.0 1011.3
2016-Apr-25 06:00S 05°24' W 081°36'1212.0 1011.7
2016-Apr-25 05:00S 05°12' W 081°36'2412.0 1012.0
2016-Apr-25 03:00S 04°48' W 081°36'1212.0 1012.1
2016-Apr-25 02:00S 04°36' W 081°36'1212.0 1011.7
2016-Apr-25 01:00S 04°24' W 081°36'1818.0 1011.2
2016-Apr-25 00:00S 04°06' W 081°36'1212.0 1010.4
2016-Apr-24 23:00S 03°54' W 081°36'1212.0 1010.0
2016-Apr-24 22:00S 03°42' W 081°36'1212.0 1010.0
2016-Apr-24 21:00S 03°30' W 081°36'2512.4 1010.2
2016-Apr-24 19:00S 03°06' W 081°30'1212.0 1012.0
2016-Apr-24 18:00S 02°54' W 081°30'1818.0 1012.9
2016-Apr-24 17:00S 02°36' W 081°30'1212.0 1014.2
2016-Apr-24 16:00S 02°24' W 081°30'1212.0 1014.4
2016-Apr-24 15:00S 02°12' W 081°30'1212.0 1014.9
2016-Apr-24 14:00S 02°00' W 081°30'3612.2 1014.8
2016-Apr-24 11:00S 01°24' W 081°24'1919.0 1013.1
2016-Apr-24 10:00S 01°06' W 081°18'1818.0 1012.3
2016-Apr-24 09:00S 00°48' W 081°18'1919.0 1012.1
2016-Apr-24 08:00S 00°30' W 081°12'1313.4 1012.7
2016-Apr-24 07:00S 00°18' W 081°06'1818.0 1013.1
2016-Apr-24 06:00N 00°00' W 081°06'3618.2 1013.0
2016-Apr-24 04:00N 00°36' W 081°00'1313.4 1013.8
2016-Apr-24 03:00N 00°48' W 080°54'1919.0 1013.0
2016-Apr-24 02:00N 01°06' W 080°48'1818.0 1012.1
2016-Apr-24 01:00N 01°24' W 080°48'1919.0 1011.4
2016-Apr-24 00:00N 01°42' W 080°42'3115.3 1010.6
2016-Apr-23 22:00N 02°12' W 080°36'1818.0 1009.8
2016-Apr-23 21:00N 02°30' W 080°36'1313.4 1009.5
2016-Apr-23 20:00N 02°42' W 080°30'1818.0 1010.4
2016-Apr-23 19:00N 03°00' W 080°30'1919.0 1011.1
2016-Apr-23 18:00N 03°18' W 080°24'1313.4 1011.8
2016-Apr-23 17:00N 03°30' W 080°18'3618.2 1012.6
2016-Apr-23 15:00N 04°06' W 080°12'1212.0 1012.7
2016-Apr-23 14:00N 04°18' W 080°12'1919.0 1012.0
2016-Apr-23 13:00N 04°36' W 080°06'1919.0 1011.3
2016-Apr-23 12:00N 04°54' W 080°00'1818.0 1010.2
2016-Apr-23 11:00N 05°12' W 080°00'1919.0 1009.7
2016-Apr-23 10:00N 05°30' W 079°54'1818.0 1009.6
2016-Apr-23 09:00N 05°48' W 079°54'1919.0 1009.4
2016-Apr-23 08:00N 06°06' W 079°48'1919.0 1009.7
2016-Apr-23 07:00N 06°24' W 079°42'1212.0 1010.0
2016-Apr-23 06:00N 06°36' W 079°42'1919.0 1011.1
2016-Apr-23 05:00N 06°54' W 079°36'1818.0 1011.7
2016-Apr-23 04:00N 07°12' W 079°36'1919.0 1012.1
2016-Apr-23 03:00N 07°30' W 079°30'1818.0 1011.4
2016-Apr-23 02:00N 07°48' W 079°30'1818.0 1010.6
2016-Apr-23 01:00N 08°06' W 079°30'1818.0 1009.7
2016-Apr-23 00:00N 08°24' W 079°30'1818.0 1008.9
2016-Apr-22 23:00N 08°42' W 079°30'1212.0 1008.2
2016-Apr-22 22:00N 08°54' W 079°30'8 2.8 1008.1
2016-Apr-22 19:00N 09°00' W 079°36'8 8.4 1006.7
2016-Apr-22 18:00N 09°06' W 079°42'8 4.2 1008.2
2016-Apr-22 16:00N 09°12' W 079°48'6 5.9 1009.7
2016-Apr-22 15:00N 09°12' W 079°54'6 2.0 1010.0
2016-Apr-22 12:00N 09°18' W 079°54'6 6.0 1010.8
2016-Apr-22 11:00N 09°24' W 079°54'0 0.0 1010.7
2016-Apr-21 12:00N 09°24' W 079°54'0 0.0 1010.4
2016-Apr-21 11:00N 09°24' W 079°54'1212.0 1010.0
2016-Apr-21 10:00N 09°36' W 079°54'8 8.4 1009.7
2016-Apr-21 09:00N 09°42' W 079°48'13 6.6 1009.4
2016-Apr-21 07:00N 09°48' W 079°36'1211.8 1009.7
2016-Apr-21 06:00N 09°48' W 079°24'6 5.9 1010.3
2016-Apr-21 05:00N 09°48' W 079°18'1211.8 1011.2
2016-Apr-21 04:00N 09°48' W 079°06'6 5.9 1011.5
2016-Apr-21 03:00N 09°48' W 079°00'1211.8 1011.3
2016-Apr-21 02:00N 09°48' W 078°48'6 5.9 1010.7
2016-Apr-21 01:00N 09°48' W 078°42'6 5.9 1010.0
2016-Apr-21 00:00N 09°48' W 078°36'1313.3 1009.5
2016-Apr-20 23:00N 09°54' W 078°24'6 5.9 1008.7
2016-Apr-20 22:00N 09°54' W 078°18'1211.8 1008.2
2016-Apr-20 21:00N 09°54' W 078°06'0 0.0 1008.4
2016-Apr-20 20:00N 09°54' W 078°06'6 1.5 1008.7
2016-Apr-20 16:00N 10°00' W 078°06'0 0.0 1011.6
2016-Apr-20 14:00N 10°00' W 078°06'1211.8 1011.2
2016-Apr-20 13:00N 10°00' W 077°54'6 5.9 1011.1
2016-Apr-20 12:00N 10°00' W 077°48'12 5.9 1010.4
2016-Apr-20 10:00N 10°00' W 077°36'8 8.4 1009.2
2016-Apr-20 09:00N 10°06' W 077°30'1211.8 1009.0
2016-Apr-20 08:00N 10°06' W 077°18'6 5.9 1008.6
2016-Apr-20 07:00N 10°06' W 077°12'6 5.9 1009.3
2016-Apr-20 06:00N 10°06' W 077°06'   1010.1
Track history (hours):
 
Tides and Currents Weather Stations Pressure Air Temp Water Temp Dewpoint Dewpoint Depression Visibility Wind Speed Wind Dir Waves Ship Positions

Callsign BAREU11 (name unknown)

Last reported at 2016-Apr-30 06:00 UTC. Time now 2016-Apr-30 07:09 UTC.
Position S 30°48' W 072°18'.

Barometer 1011.7 mb

Date/timePositionNaut miles runAvg speedWind from/ knotsBaromVisibWave heightAir tempDewpointWater temp
2016-Apr-30 06:00S 30°48' W 072°18'1918.7 1011.7
2016-Apr-30 05:00S 30°30' W 072°24'1212.0 1012.3
2016-Apr-30 04:00S 30°18' W 072°24'1918.7 1012.4
2016-Apr-30 03:00S 30°00' W 072°30'1918.7 1012.5
2016-Apr-30 02:00S 29°42' W 072°36'2512.3 1013.4
2016-Apr-30 00:00S 29°18' W 072°42'1918.7 1013.8
2016-Apr-29 23:00S 29°00' W 072°48'1918.8 1014.0
2016-Apr-29 22:00S 28°42' W 072°54'1212.0 1013.9
2016-Apr-29 21:00S 28°30' W 072°54'3818.8 1014.3
2016-Apr-29 19:00S 27°54' W 073°06'1313.1 1015.5
2016-Apr-29 18:00S 27°42' W 073°12'1818.0 1016.3
2016-Apr-29 17:00S 27°24' W 073°12'3215.9 1017.3
2016-Apr-29 15:00S 26°54' W 073°24'1918.8 1018.4
2016-Apr-29 14:00S 26°36' W 073°30'1818.0 1018.1
2016-Apr-29 13:00S 26°18' W 073°30'1918.8 1017.6
2016-Apr-29 12:00S 26°00' W 073°36'1313.2 1017.4
2016-Apr-29 11:00S 25°48' W 073°42'3818.8 1017.3
2016-Apr-29 09:00S 25°12' W 073°54'3015.2 1017.4
2016-Apr-29 07:00S 24°42' W 074°00'1918.8 1017.6
2016-Apr-29 06:00S 24°24' W 074°06'1212.0 1018.0
2016-Apr-29 05:00S 24°12' W 074°06'3818.8 1018.4
2016-Apr-29 03:00S 23°36' W 074°18'1313.2 1018.4
2016-Apr-29 02:00S 23°24' W 074°24'3618.2 1018.7
2016-Apr-29 00:00S 22°48' W 074°30'1313.2 1017.5
2016-Apr-28 23:00S 22°36' W 074°36'3618.2 1017.2
2016-Apr-28 21:00S 22°00' W 074°42'1313.2 1016.4
2016-Apr-28 20:00S 21°48' W 074°48'1918.8 1016.1
2016-Apr-28 19:00S 21°30' W 074°54'1918.8 1016.1
2016-Apr-28 18:00S 21°12' W 075°00'1818.0 1016.2
2016-Apr-28 17:00S 20°54' W 075°00'1313.2 1016.6
2016-Apr-28 16:00S 20°42' W 075°06'1918.9 1017.3
2016-Apr-28 15:00S 20°24' W 075°12'1918.9 1017.5
2016-Apr-28 14:00S 20°06' W 075°18'1818.0 1016.9
2016-Apr-28 13:00S 19°48' W 075°18'1918.9 1016.1
2016-Apr-28 12:00S 19°30' W 075°24'1918.9 1015.7
2016-Apr-28 11:00S 19°12' W 075°30'1918.9 1014.8
2016-Apr-28 10:00S 18°54' W 075°36'1818.0 1014.1
2016-Apr-28 09:00S 18°36' W 075°36'1918.9 1014.0
2016-Apr-28 08:00S 18°18' W 075°42'3216.0 1013.7
2016-Apr-28 06:00S 17°48' W 075°54'1818.0 1013.9
2016-Apr-28 05:00S 17°30' W 075°54'1918.9 1014.1
2016-Apr-28 04:00S 17°12' W 076°00'1918.9 1013.9
2016-Apr-28 03:00S 16°54' W 076°06'1818.0 1014.1
2016-Apr-28 02:00S 16°36' W 076°06'1313.3 1013.8
2016-Apr-28 01:00S 16°24' W 076°12'1918.9 1013.1
2016-Apr-28 00:00S 16°06' W 076°18'1918.9 1012.2
2016-Apr-27 23:00S 15°48' W 076°24'3115.3 1011.2
2016-Apr-27 21:00S 15°18' W 076°30'1918.9 1010.0
2016-Apr-27 20:00S 15°00' W 076°36'1918.9 1010.0
2016-Apr-27 19:00S 14°42' W 076°42'1818.0 1010.5
2016-Apr-27 18:00S 14°24' W 076°42'1313.3 1011.2
2016-Apr-27 17:00S 14°12' W 076°48'1918.9 1012.1
2016-Apr-27 16:00S 13°54' W 076°54'1818.0 1012.9
2016-Apr-27 15:00S 13°36' W 076°54'1313.3 1013.1
2016-Apr-27 14:00S 13°24' W 077°00'1918.9 1013.0
2016-Apr-27 13:00S 13°06' W 077°06'1818.0 1012.8
2016-Apr-27 12:00S 12°48' W 077°06'1313.4 1012.4
2016-Apr-27 11:00S 12°36' W 077°12'1918.9 1012.2
2016-Apr-27 10:00S 12°18' W 077°18'1818.0 1011.8
2016-Apr-27 09:00S 12°00' W 077°18'6 0.4 1011.9
2016-Apr-26 19:00S 12°00' W 077°12'2110.7 1010.5
2016-Apr-26 17:00S 11°48' W 077°30'1313.2 1011.6
2016-Apr-26 16:00S 11°42' W 077°42'1716.8 1011.9
2016-Apr-26 15:00S 11°30' W 077°54'8 8.4 1012.3
2016-Apr-26 14:00S 11°24' W 078°00'1313.4 1011.9
2016-Apr-26 13:00S 11°12' W 078°06'1716.8 1011.6
2016-Apr-26 12:00S 11°00' W 078°18'2713.4 1011.1
2016-Apr-26 10:00S 10°36' W 078°30'8 8.4 1010.3
2016-Apr-26 09:00S 10°30' W 078°36'1716.8 1010.3
2016-Apr-26 08:00S 10°18' W 078°48'1313.4 1010.4
2016-Apr-26 07:00S 10°06' W 078°54'1313.4 1010.6
2016-Apr-26 06:00S 09°54' W 079°00'1313.4 1010.9
2016-Apr-26 05:00S 09°42' W 079°06'8 8.4 1011.2
2016-Apr-26 04:00S 09°36' W 079°12'1716.9 1011.3
2016-Apr-26 03:00S 09°24' W 079°24'2713.4 1011.4
2016-Apr-26 01:00S 09°00' W 079°36'1313.4 1011.0
2016-Apr-26 00:00S 08°48' W 079°42'1313.4 1010.5
2016-Apr-25 23:00S 08°36' W 079°48'1313.3 1010.1
2016-Apr-25 22:00S 08°30' W 080°00'1313.4 1009.7
2016-Apr-25 21:00S 08°18' W 080°06'1313.4 1009.2
2016-Apr-25 20:00S 08°06' W 080°12'1313.4 1009.3
2016-Apr-25 19:00S 07°54' W 080°18'1313.4 1010.0
2016-Apr-25 18:00S 07°42' W 080°24'8 8.4 1010.8
2016-Apr-25 17:00S 07°36' W 080°30'1716.9 1011.6
2016-Apr-25 16:00S 07°24' W 080°42'1313.4 1012.0
2016-Apr-25 15:00S 07°12' W 080°48'1313.4 1012.5
2016-Apr-25 14:00S 07°00' W 080°54'1716.9 1012.9
2016-Apr-25 13:00S 06°48' W 081°06'1313.4 1012.3
2016-Apr-25 12:00S 06°36' W 081°12'1313.4 1012.2
2016-Apr-25 11:00S 06°24' W 081°18'1313.4 1011.4
2016-Apr-25 10:00S 06°12' W 081°24'1313.4 1010.9
2016-Apr-25 09:00S 06°00' W 081°30'2512.4 1010.7
2016-Apr-25 07:00S 05°36' W 081°36'1212.0 1011.3
2016-Apr-25 06:00S 05°24' W 081°36'1212.0 1011.7
2016-Apr-25 05:00S 05°12' W 081°36'2412.0 1012.0
2016-Apr-25 03:00S 04°48' W 081°36'1212.0 1012.1
2016-Apr-25 02:00S 04°36' W 081°36'1212.0 1011.7
2016-Apr-25 01:00S 04°24' W 081°36'1818.0 1011.2
2016-Apr-25 00:00S 04°06' W 081°36'1212.0 1010.4
2016-Apr-24 23:00S 03°54' W 081°36'1212.0 1010.0
2016-Apr-24 22:00S 03°42' W 081°36'1212.0 1010.0
2016-Apr-24 21:00S 03°30' W 081°36'2512.4 1010.2
2016-Apr-24 19:00S 03°06' W 081°30'1212.0 1012.0
2016-Apr-24 18:00S 02°54' W 081°30'1818.0 1012.9
2016-Apr-24 17:00S 02°36' W 081°30'1212.0 1014.2
2016-Apr-24 16:00S 02°24' W 081°30'1212.0 1014.4
2016-Apr-24 15:00S 02°12' W 081°30'1212.0 1014.9
2016-Apr-24 14:00S 02°00' W 081°30'3612.2 1014.8
2016-Apr-24 11:00S 01°24' W 081°24'1919.0 1013.1
2016-Apr-24 10:00S 01°06' W 081°18'1818.0 1012.3
2016-Apr-24 09:00S 00°48' W 081°18'1919.0 1012.1
2016-Apr-24 08:00S 00°30' W 081°12'1313.4 1012.7
2016-Apr-24 07:00S 00°18' W 081°06'1818.0 1013.1
2016-Apr-24 06:00N 00°00' W 081°06'3618.2 1013.0
2016-Apr-24 04:00N 00°36' W 081°00'1313.4 1013.8
2016-Apr-24 03:00N 00°48' W 080°54'1919.0 1013.0
2016-Apr-24 02:00N 01°06' W 080°48'1818.0 1012.1
2016-Apr-24 01:00N 01°24' W 080°48'1919.0 1011.4
2016-Apr-24 00:00N 01°42' W 080°42'3115.3 1010.6
2016-Apr-23 22:00N 02°12' W 080°36'1818.0 1009.8
2016-Apr-23 21:00N 02°30' W 080°36'1313.4 1009.5
2016-Apr-23 20:00N 02°42' W 080°30'1818.0 1010.4
2016-Apr-23 19:00N 03°00' W 080°30'1919.0 1011.1
2016-Apr-23 18:00N 03°18' W 080°24'1313.4 1011.8
2016-Apr-23 17:00N 03°30' W 080°18'3618.2 1012.6
2016-Apr-23 15:00N 04°06' W 080°12'1212.0 1012.7
2016-Apr-23 14:00N 04°18' W 080°12'1919.0 1012.0
2016-Apr-23 13:00N 04°36' W 080°06'1919.0 1011.3
2016-Apr-23 12:00N 04°54' W 080°00'1818.0 1010.2
2016-Apr-23 11:00N 05°12' W 080°00'1919.0 1009.7
2016-Apr-23 10:00N 05°30' W 079°54'1818.0 1009.6
2016-Apr-23 09:00N 05°48' W 079°54'1919.0 1009.4
2016-Apr-23 08:00N 06°06' W 079°48'1919.0 1009.7
2016-Apr-23 07:00N 06°24' W 079°42'1212.0 1010.0
2016-Apr-23 06:00N 06°36' W 079°42'1919.0 1011.1
2016-Apr-23 05:00N 06°54' W 079°36'1818.0 1011.7
2016-Apr-23 04:00N 07°12' W 079°36'1919.0 1012.1
2016-Apr-23 03:00N 07°30' W 079°30'1818.0 1011.4
2016-Apr-23 02:00N 07°48' W 079°30'1818.0 1010.6
2016-Apr-23 01:00N 08°06' W 079°30'1818.0 1009.7
2016-Apr-23 00:00N 08°24' W 079°30'1818.0 1008.9
2016-Apr-22 23:00N 08°42' W 079°30'1212.0 1008.2
2016-Apr-22 22:00N 08°54' W 079°30'8 2.8 1008.1
2016-Apr-22 19:00N 09°00' W 079°36'8 8.4 1006.7
2016-Apr-22 18:00N 09°06' W 079°42'8 4.2 1008.2
2016-Apr-22 16:00N 09°12' W 079°48'6 5.9 1009.7
2016-Apr-22 15:00N 09°12' W 079°54'6 2.0 1010.0
2016-Apr-22 12:00N 09°18' W 079°54'6 6.0 1010.8
2016-Apr-22 11:00N 09°24' W 079°54'0 0.0 1010.7
2016-Apr-21 12:00N 09°24' W 079°54'0 0.0 1010.4
2016-Apr-21 11:00N 09°24' W 079°54'1212.0 1010.0
2016-Apr-21 10:00N 09°36' W 079°54'8 8.4 1009.7
2016-Apr-21 09:00N 09°42' W 079°48'13 6.6 1009.4
2016-Apr-21 07:00N 09°48' W 079°36'1211.8 1009.7
2016-Apr-21 06:00N 09°48' W 079°24'6 5.9 1010.3
2016-Apr-21 05:00N 09°48' W 079°18'1211.8 1011.2
2016-Apr-21 04:00N 09°48' W 079°06'6 5.9 1011.5
2016-Apr-21 03:00N 09°48' W 079°00'1211.8 1011.3
2016-Apr-21 02:00N 09°48' W 078°48'6 5.9 1010.7
2016-Apr-21 01:00N 09°48' W 078°42'6 5.9 1010.0
2016-Apr-21 00:00N 09°48' W 078°36'1313.3 1009.5
2016-Apr-20 23:00N 09°54' W 078°24'6 5.9 1008.7
2016-Apr-20 22:00N 09°54' W 078°18'1211.8 1008.2
2016-Apr-20 21:00N 09°54' W 078°06'0 0.0 1008.4
2016-Apr-20 20:00N 09°54' W 078°06'6 1.5 1008.7
2016-Apr-20 16:00N 10°00' W 078°06'0 0.0 1011.6
2016-Apr-20 14:00N 10°00' W 078°06'1211.8 1011.2
2016-Apr-20 13:00N 10°00' W 077°54'6 5.9 1011.1
2016-Apr-20 12:00N 10°00' W 077°48'12 5.9 1010.4
2016-Apr-20 10:00N 10°00' W 077°36'8 8.4 1009.2
2016-Apr-20 09:00N 10°06' W 077°30'1211.8 1009.0
2016-Apr-20 08:00N 10°06' W 077°18'6 5.9 1008.6
2016-Apr-20 07:00N 10°06' W 077°12'6 5.9 1009.3
2016-Apr-20 06:00N 10°06' W 077°06'   1010.1

Dump ship's entire track history